createdAt,value
2018-09-02T00:00:49.885Z,6.17
2018-09-02T00:03:18.472Z,6.07
2018-09-02T00:05:47.337Z,6.27
2018-09-02T00:08:15.978Z,6.73
2018-09-02T00:10:44.575Z,5.70
2018-09-02T00:13:13.315Z,6.73
2018-09-02T00:15:41.879Z,6.13
2018-09-02T00:18:10.569Z,5.57
2018-09-02T00:20:39.150Z,6.30
2018-09-02T00:23:07.759Z,6.30
2018-09-02T00:25:36.661Z,5.90
2018-09-02T00:28:05.369Z,5.80
2018-09-02T00:30:34.382Z,6.43
2018-09-02T00:33:03.035Z,6.53
2018-09-02T00:35:31.735Z,6.70
2018-09-02T00:38:00.378Z,6.33
2018-09-02T00:40:28.900Z,6.07
2018-09-02T00:42:57.633Z,6.67
2018-09-02T00:45:26.277Z,5.57
2018-09-02T00:47:55.006Z,6.53
2018-09-02T00:50:23.635Z,6.07
2018-09-02T00:52:52.219Z,6.33
2018-09-02T00:55:20.835Z,6.30
2018-09-02T00:57:49.340Z,6.00
2018-09-02T01:00:18.526Z,6.03
2018-09-02T01:02:47.296Z,6.60
2018-09-02T01:05:15.945Z,6.90
2018-09-02T01:07:44.535Z,6.30
2018-09-02T01:10:13.027Z,6.60
2018-09-02T01:12:41.585Z,6.70
2018-09-02T01:15:10.132Z,6.33
2018-09-02T01:17:38.709Z,6.33
2018-09-02T01:20:07.641Z,6.13
2018-09-02T01:22:36.228Z,6.77
2018-09-02T01:25:04.771Z,6.00
2018-09-02T01:27:33.613Z,6.70
2018-09-02T01:30:02.215Z,6.30
2018-09-02T01:32:30.978Z,6.27
2018-09-02T01:34:59.682Z,6.63
2018-09-02T01:37:28.312Z,6.60
2018-09-02T01:39:57.077Z,6.03
2018-09-02T01:42:26.973Z,6.20
2018-09-02T01:44:55.571Z,6.33
2018-09-02T01:47:24.420Z,6.00
2018-09-02T01:49:53.133Z,5.90
2018-09-02T01:52:21.871Z,6.60
2018-09-02T01:54:50.714Z,7.10
2018-09-02T01:57:19.542Z,5.67
2018-09-02T01:59:48.251Z,6.93
2018-09-02T02:02:16.852Z,6.70
2018-09-02T02:04:45.551Z,6.70
2018-09-02T02:07:14.199Z,7.20
2018-09-02T02:09:43.137Z,6.70
2018-09-02T02:12:12.044Z,6.47
2018-09-02T02:14:40.745Z,6.90
2018-09-02T02:17:09.333Z,5.93
2018-09-02T02:19:37.954Z,6.43
2018-09-02T02:22:06.480Z,6.70
2018-09-02T02:24:35.460Z,6.43
2018-09-02T02:27:04.040Z,5.97
2018-09-02T02:29:32.795Z,6.30
2018-09-02T02:32:01.919Z,6.13
2018-09-02T02:34:30.694Z,6.40
2018-09-02T02:36:59.214Z,6.27
2018-09-02T02:39:27.826Z,6.00
2018-09-02T02:41:56.394Z,5.87
2018-09-02T02:44:25.071Z,6.43
2018-09-02T02:46:53.722Z,6.00
2018-09-02T02:49:22.321Z,6.00
2018-09-02T02:51:51.807Z,5.97
2018-09-02T02:54:20.330Z,5.90
2018-09-02T02:56:49.136Z,6.37
2018-09-02T02:59:17.841Z,5.90
2018-09-02T03:01:46.430Z,5.80
2018-09-02T03:04:14.967Z,5.80
2018-09-02T03:06:43.623Z,5.93
2018-09-02T03:09:12.760Z,6.13
2018-09-02T03:11:41.488Z,5.80
2018-09-02T03:14:10.963Z,5.77
2018-09-02T03:16:40.293Z,6.23
2018-09-02T03:19:09.272Z,5.97
2018-09-02T03:21:38.058Z,6.10
2018-09-02T03:24:06.735Z,6.27
2018-09-02T03:26:35.389Z,5.80
2018-09-02T03:29:04.182Z,6.13
2018-09-02T03:31:32.980Z,5.87
2018-09-02T03:34:01.678Z,5.93
2018-09-02T03:36:30.221Z,5.53
2018-09-02T03:38:58.827Z,6.00
2018-09-02T03:41:27.606Z,5.53
2018-09-02T03:43:56.186Z,6.20
2018-09-02T03:46:24.802Z,5.73
2018-09-02T03:48:53.541Z,5.70
2018-09-02T03:51:22.160Z,5.87
2018-09-02T03:53:50.912Z,5.83
2018-09-02T03:56:19.611Z,4.90
2018-09-02T03:58:48.362Z,5.47
2018-09-02T04:01:17.095Z,5.43
2018-09-02T04:03:45.730Z,5.17
2018-09-02T04:06:14.319Z,5.60
2018-09-02T04:08:42.925Z,5.53
2018-09-02T04:11:11.551Z,6.17
2018-09-02T04:13:40.172Z,5.43
2018-09-02T04:16:09.007Z,6.30
2018-09-02T04:18:37.566Z,5.57
2018-09-02T04:21:06.352Z,5.33
2018-09-02T04:23:35.002Z,6.53
2018-09-02T04:26:03.652Z,6.37
2018-09-02T04:28:32.263Z,6.70
2018-09-02T04:31:00.849Z,6.30
2018-09-02T04:33:29.449Z,6.80
2018-09-02T04:35:58.717Z,6.10
2018-09-02T04:38:27.287Z,6.03
2018-09-02T04:40:55.994Z,6.50
2018-09-02T04:43:24.501Z,6.17
2018-09-02T04:45:53.412Z,5.90
2018-09-02T04:48:21.915Z,5.60
2018-09-02T04:50:50.749Z,6.40
2018-09-02T04:53:19.901Z,6.00
2018-09-02T04:55:48.513Z,6.87
2018-09-02T04:58:17.375Z,6.33
2018-09-02T05:00:45.834Z,6.00
2018-09-02T05:03:14.628Z,6.70
2018-09-02T05:05:43.433Z,5.87
2018-09-02T05:08:11.995Z,6.43
2018-09-02T05:10:40.684Z,6.53
2018-09-02T05:13:09.291Z,6.03
2018-09-02T05:15:37.899Z,6.13
2018-09-02T05:18:06.492Z,6.83
2018-09-02T05:20:35.288Z,6.20
2018-09-02T05:23:03.978Z,6.20
2018-09-02T05:25:32.708Z,6.70
2018-09-02T05:28:01.637Z,6.47
2018-09-02T05:30:30.405Z,6.53
2018-09-02T05:32:59.144Z,6.33
2018-09-02T05:35:27.854Z,6.50
2018-09-02T05:37:56.657Z,6.03
2018-09-02T05:40:25.293Z,6.17
2018-09-02T05:42:54.073Z,6.53
2018-09-02T05:45:22.583Z,6.50
2018-09-02T05:47:51.368Z,7.23
2018-09-02T05:50:20.036Z,7.07
2018-09-02T05:52:48.807Z,6.83
2018-09-02T05:55:17.491Z,7.00
2018-09-02T05:57:46.196Z,6.47
2018-09-02T06:00:14.926Z,6.47
2018-09-02T06:02:43.709Z,6.30
2018-09-02T06:05:12.274Z,6.60
2018-09-02T06:07:40.890Z,6.77
2018-09-02T06:10:10.333Z,6.27
2018-09-02T06:12:38.965Z,6.67
2018-09-02T06:15:07.733Z,6.77
2018-09-02T06:17:36.308Z,5.80
2018-09-02T06:20:04.990Z,6.73
2018-09-02T06:22:33.805Z,6.50
2018-09-02T06:25:02.447Z,7.27
2018-09-02T06:27:31.007Z,6.23
2018-09-02T06:29:59.752Z,6.50
2018-09-02T06:32:28.329Z,6.73
2018-09-02T06:34:57.183Z,6.77
2018-09-02T06:37:25.746Z,5.90
2018-09-02T06:39:55.230Z,6.40
2018-09-02T06:42:24.079Z,5.67
2018-09-02T06:44:53.521Z,5.73
2018-09-02T06:47:22.296Z,5.57
2018-09-02T06:49:51.363Z,6.00
2018-09-02T06:52:19.901Z,5.90
2018-09-02T06:54:48.644Z,5.70
2018-09-02T06:57:17.434Z,5.47
2018-09-02T06:59:46.438Z,6.20
2018-09-02T07:02:15.338Z,6.13
2018-09-02T07:04:44.526Z,5.87
2018-09-02T07:07:13.814Z,5.70
2018-09-02T07:09:43.323Z,5.50
2018-09-02T07:12:12.479Z,6.27
2018-09-02T07:14:41.223Z,5.63
2018-09-02T07:17:09.978Z,5.43
2018-09-02T07:19:39.407Z,4.30
2018-09-02T07:22:08.372Z,4.33
2018-09-02T07:24:38.358Z,3.73
2018-09-02T07:27:07.528Z,3.73
2018-09-02T07:29:37.421Z,3.97
2018-09-02T07:32:06.729Z,3.93
2018-09-02T07:34:36.166Z,3.80
2018-09-02T07:37:04.817Z,3.37
2018-09-02T07:39:33.969Z,3.60
2018-09-02T07:42:03.060Z,3.50
2018-09-02T07:44:31.764Z,3.90
2018-09-02T07:47:00.792Z,4.33
2018-09-02T07:49:30.748Z,3.90
2018-09-02T07:52:00.369Z,4.07
2018-09-02T07:54:29.329Z,4.17
2018-09-02T07:56:59.032Z,4.60
2018-09-02T07:59:28.024Z,4.07
2018-09-02T08:01:56.744Z,4.53
2018-09-02T08:04:25.566Z,3.97
2018-09-02T08:06:54.204Z,4.47
2018-09-02T08:09:24.316Z,4.60
2018-09-02T08:11:53.438Z,4.30
2018-09-02T08:14:22.802Z,4.57
2018-09-02T08:16:52.417Z,4.60
2018-09-02T08:19:21.218Z,4.30
2018-09-02T08:21:50.072Z,4.40
2018-09-02T08:24:18.848Z,5.00
2018-09-02T08:26:48.658Z,4.70
2018-09-02T08:29:18.105Z,4.77
2018-09-02T08:31:48.423Z,5.00
2018-09-02T08:34:18.190Z,5.30
2018-09-02T08:36:47.618Z,5.20
2018-09-02T08:39:16.758Z,5.30
2018-09-02T08:41:46.831Z,4.60
2018-09-02T08:46:43.233Z,5.10
2018-09-02T08:49:12.100Z,5.03
2018-09-02T08:51:40.896Z,5.07
2018-09-02T08:54:09.483Z,4.90
2018-09-02T08:56:38.091Z,5.27
2018-09-02T08:59:07.845Z,5.10
2018-09-02T09:01:36.396Z,5.50
2018-09-02T09:04:05.239Z,5.20
2018-09-02T09:06:34.214Z,4.77
2018-09-02T09:09:03.618Z,4.87
2018-09-02T09:11:32.014Z,4.87
2018-09-02T09:14:00.635Z,4.20
2018-09-02T09:16:29.948Z,4.47
2018-09-02T09:18:59.123Z,4.77
2018-09-02T09:21:27.656Z,5.37
2018-09-02T09:23:56.437Z,4.80
2018-09-02T09:26:25.119Z,4.87
2018-09-02T09:28:54.139Z,4.50
2018-09-02T09:31:22.863Z,5.27
2018-09-02T09:33:51.743Z,5.30
2018-09-02T09:36:20.399Z,5.70
2018-09-02T09:38:49.250Z,4.80
2018-09-02T09:41:17.910Z,5.20
2018-09-02T09:43:46.900Z,4.70
2018-09-02T09:46:15.562Z,4.53
2018-09-02T09:48:44.447Z,4.33
2018-09-02T09:51:13.070Z,5.00
2018-09-02T09:53:42.185Z,4.93
2018-09-02T09:56:11.213Z,4.57
2018-09-02T09:58:39.947Z,4.57
2018-09-02T10:01:09.316Z,5.30
2018-09-02T10:03:38.630Z,4.70
2018-09-02T10:06:07.868Z,4.43
2018-09-02T10:08:36.831Z,5.23
2018-09-02T10:11:06.040Z,4.27
2018-09-02T10:13:35.424Z,4.37
2018-09-02T10:16:04.986Z,4.67
2018-09-02T10:18:34.072Z,4.73
2018-09-02T10:21:02.667Z,4.83
2018-09-02T10:23:31.438Z,5.03
2018-09-02T10:26:00.626Z,5.00
2018-09-02T10:28:29.565Z,4.73
2018-09-02T10:30:58.336Z,5.07
2018-09-02T10:33:27.211Z,5.07
2018-09-02T10:35:55.999Z,5.27
2018-09-02T10:38:25.291Z,5.07
2018-09-02T10:40:54.033Z,5.30
2018-09-02T10:43:23.027Z,5.20
2018-09-02T10:45:51.766Z,5.17
2018-09-02T10:48:20.299Z,5.07
2018-09-02T10:50:49.233Z,5.23
2018-09-02T10:53:17.865Z,4.90
2018-09-02T10:55:46.514Z,5.10
2018-09-02T10:58:15.691Z,4.53
2018-09-02T11:00:44.586Z,5.10
2018-09-02T11:03:17.391Z,4.77
2018-09-02T11:05:46.474Z,4.97
2018-09-02T11:08:15.139Z,5.07
2018-09-02T11:10:44.155Z,5.63
2018-09-02T11:13:13.089Z,5.67
2018-09-02T11:15:41.852Z,6.07
2018-09-02T11:18:10.477Z,5.63
2018-09-02T11:20:39.401Z,4.57
2018-09-02T11:23:08.183Z,5.03
2018-09-02T11:25:37.220Z,5.47
2018-09-02T11:28:06.205Z,5.73
2018-09-02T11:30:35.149Z,5.10
2018-09-02T11:33:04.043Z,4.37
2018-09-02T11:35:33.712Z,4.27
2018-09-02T11:38:02.267Z,5.10
2018-09-02T11:40:31.229Z,4.70
2018-09-02T11:43:00.012Z,5.17
2018-09-02T11:45:29.542Z,5.63
2018-09-02T11:47:58.375Z,4.67
2018-09-02T11:50:27.094Z,4.53
2018-09-02T11:52:55.824Z,5.63
2018-09-02T11:55:24.525Z,4.80
2018-09-02T11:57:53.816Z,5.00
2018-09-02T12:00:22.446Z,5.00
2018-09-02T12:05:33.098Z,4.90
2018-09-02T12:08:01.653Z,4.87
2018-09-02T12:10:30.178Z,4.37
2018-09-02T12:12:59.289Z,4.47
2018-09-02T12:15:28.427Z,4.13
2018-09-02T12:17:57.761Z,4.30
2018-09-02T12:20:26.233Z,3.77
2018-09-02T12:22:55.050Z,3.73
2018-09-02T12:25:23.838Z,3.10
2018-09-02T12:27:52.513Z,2.87
2018-09-02T12:30:21.209Z,3.23
2018-09-02T12:32:49.801Z,3.20
2018-09-02T12:35:18.385Z,2.70
2018-09-02T12:37:47.159Z,3.00
2018-09-02T12:40:15.825Z,3.40
2018-09-02T12:42:44.868Z,3.57
2018-09-02T12:45:14.216Z,3.60
2018-09-02T12:47:43.068Z,3.50
2018-09-02T12:50:12.633Z,3.57
2018-09-02T12:52:41.334Z,4.00
2018-09-02T12:55:10.010Z,3.20
2018-09-02T12:57:38.726Z,3.20
2018-09-02T13:00:08.145Z,3.00
2018-09-02T13:02:36.676Z,3.17
2018-09-02T13:05:05.420Z,2.90
2018-09-02T13:07:34.355Z,2.90
2018-09-02T13:10:02.979Z,2.87
2018-09-02T13:12:31.645Z,2.70
2018-09-02T13:15:00.324Z,2.17
2018-09-02T13:17:29.353Z,2.60
2018-09-02T13:19:58.453Z,2.57
2018-09-02T13:22:26.883Z,2.30
2018-09-02T13:24:55.513Z,2.70
2018-09-02T13:27:24.288Z,3.00
2018-09-02T13:29:52.935Z,2.60
2018-09-02T13:32:21.478Z,2.50
2018-09-02T13:34:50.046Z,2.80
2018-09-02T13:37:18.708Z,2.73
2018-09-02T13:39:47.425Z,2.60
2018-09-02T13:42:16.222Z,2.77
2018-09-02T13:44:45.358Z,2.50
2018-09-02T13:47:14.048Z,2.07
2018-09-02T13:49:43.281Z,2.40
2018-09-02T13:52:12.012Z,2.40
2018-09-02T13:54:40.928Z,2.10
2018-09-02T13:57:09.481Z,2.70
2018-09-02T13:59:38.225Z,2.10
2018-09-02T14:02:07.041Z,2.70
2018-09-02T14:04:36.112Z,2.50
2018-09-02T14:07:04.898Z,2.90
2018-09-02T14:09:33.769Z,2.20
2018-09-02T14:12:03.667Z,2.40
2018-09-02T14:14:32.258Z,2.47
2018-09-02T14:17:01.393Z,2.70
2018-09-02T14:19:30.090Z,2.23
2018-09-02T14:21:58.870Z,2.80
2018-09-02T14:24:27.603Z,4.43
2018-09-02T14:26:57.535Z,3.13
2018-09-02T14:29:26.232Z,2.67
2018-09-02T14:31:55.412Z,2.40
2018-09-02T14:34:24.174Z,2.10
2018-09-02T14:36:52.872Z,2.90
2018-09-02T14:39:21.540Z,2.40
2018-09-02T14:41:50.827Z,2.10
2018-09-02T14:44:19.701Z,2.00
2018-09-02T14:46:48.332Z,2.20
2018-09-02T14:49:17.215Z,2.20
2018-09-02T14:51:45.867Z,2.10
2018-09-02T14:54:18.515Z,2.60
2018-09-02T14:56:47.605Z,2.37
2018-09-02T14:59:16.806Z,2.03
2018-09-02T15:01:45.513Z,2.03
2018-09-02T15:04:14.315Z,2.60
2018-09-02T15:06:45.695Z,2.47
2018-09-02T15:09:15.126Z,2.50
2018-09-02T15:11:43.996Z,2.13
2018-09-02T15:14:12.585Z,2.67
2018-09-02T15:16:41.784Z,2.47
2018-09-02T15:19:10.625Z,2.53
2018-09-02T15:21:39.304Z,2.20
2018-09-02T15:24:07.818Z,2.40
2018-09-02T15:26:36.828Z,2.20
2018-09-02T15:29:05.854Z,2.40
2018-09-02T15:31:34.835Z,2.43
2018-09-02T15:34:04.051Z,2.70
2018-09-02T15:36:33.001Z,2.37
2018-09-02T15:39:01.883Z,2.40
2018-09-02T15:41:31.024Z,2.43
2018-09-02T15:43:59.789Z,2.23
2018-09-02T15:46:28.531Z,2.10
2018-09-02T15:48:57.252Z,2.60
2018-09-02T15:51:26.345Z,2.70
2018-09-02T15:53:55.041Z,2.87
2018-09-02T15:56:23.930Z,2.67
2018-09-02T15:58:52.685Z,2.40
2018-09-02T16:01:21.589Z,2.63
2018-09-02T16:03:50.626Z,2.80
2018-09-02T16:06:19.295Z,2.30
2018-09-02T16:08:48.045Z,2.60
2018-09-02T16:11:16.755Z,2.40
2018-09-02T16:13:45.663Z,3.20
2018-09-02T16:16:14.390Z,2.90
2018-09-02T16:18:43.051Z,2.57
2018-09-02T16:21:11.726Z,3.10
2018-09-02T16:23:40.469Z,2.70
2018-09-02T16:26:09.101Z,2.90
2018-09-02T16:28:37.632Z,2.50
2018-09-02T16:31:06.539Z,2.40
2018-09-02T16:33:35.559Z,2.33
2018-09-02T16:36:04.376Z,2.70
2018-09-02T16:38:33.075Z,2.83
2018-09-02T16:41:02.025Z,2.57
2018-09-02T16:43:30.505Z,2.80
2018-09-02T16:45:59.649Z,3.30
2018-09-02T16:48:28.241Z,3.90
2018-09-02T16:50:56.735Z,3.00
2018-09-02T16:53:25.598Z,3.40
2018-09-02T16:55:54.291Z,2.90
2018-09-02T16:58:23.033Z,2.90
2018-09-02T17:00:51.722Z,2.90
2018-09-02T17:03:21.517Z,3.07
2018-09-02T17:05:50.352Z,3.17
2018-09-02T17:08:19.156Z,2.70
2018-09-02T17:10:48.148Z,2.97
2018-09-02T17:13:17.755Z,2.30
2018-09-02T17:15:46.503Z,2.50
2018-09-02T17:18:16.638Z,2.63
2018-09-02T17:20:47.625Z,2.80
2018-09-02T17:23:17.732Z,2.63
2018-09-02T17:25:46.719Z,2.73
2018-09-02T17:28:15.874Z,2.80
2018-09-02T17:30:44.538Z,2.50
2018-09-02T17:33:14.049Z,2.57
2018-09-02T17:35:43.399Z,2.43
2018-09-02T17:38:12.399Z,2.13
2018-09-02T17:40:41.081Z,2.43
2018-09-02T17:43:09.731Z,2.73
2018-09-02T17:45:38.400Z,2.70
2018-09-02T17:48:07.654Z,2.67
2018-09-02T17:50:36.615Z,2.80
2018-09-02T17:53:06.181Z,2.37
2018-09-02T17:55:34.872Z,2.80
2018-09-02T17:58:03.633Z,2.70
2018-09-02T18:00:42.024Z,2.73
2018-09-02T18:03:10.751Z,2.80
2018-09-02T18:05:39.634Z,3.00
2018-09-02T18:08:08.297Z,2.70
2018-09-02T18:10:37.761Z,2.87
2018-09-02T18:13:06.398Z,2.70
2018-09-02T18:15:35.468Z,2.63
2018-09-02T18:18:04.272Z,2.70
2018-09-02T18:20:33.345Z,2.80
2018-09-02T18:23:02.190Z,2.50
2018-09-02T18:25:30.847Z,2.47
2018-09-02T18:28:02.488Z,2.90
2018-09-02T18:30:31.195Z,2.20
2018-09-02T18:33:00.304Z,2.70
2018-09-02T18:35:29.002Z,2.50
2018-09-02T18:37:57.985Z,2.53
2018-09-02T18:40:26.657Z,2.60
2018-09-02T18:42:55.794Z,2.17
2018-09-02T18:45:24.453Z,2.40
2018-09-02T18:47:53.371Z,2.20
2018-09-02T18:50:22.881Z,2.60
2018-09-02T18:52:51.734Z,2.47
2018-09-02T18:55:21.424Z,2.40
2018-09-02T18:57:50.005Z,2.93
2018-09-02T19:00:19.021Z,2.90
2018-09-02T19:02:47.701Z,2.40
2018-09-02T19:05:16.762Z,2.40
2018-09-02T19:07:45.753Z,2.27
2018-09-02T19:10:14.753Z,2.70
2018-09-02T19:12:44.166Z,2.43
2018-09-02T19:15:12.726Z,2.60
2018-09-02T19:17:41.423Z,2.70
2018-09-02T19:20:09.902Z,2.77
2018-09-02T19:22:38.729Z,2.67
2018-09-02T19:25:08.255Z,2.53
2018-09-02T19:27:37.523Z,2.90
2018-09-02T19:30:06.286Z,2.97
2018-09-02T19:32:34.842Z,2.63
2018-09-02T19:35:03.538Z,2.90
2018-09-02T19:37:32.202Z,2.70
2018-09-02T19:40:01.064Z,3.47
2018-09-02T19:42:30.731Z,3.17
2018-09-02T19:44:59.253Z,3.37
2018-09-02T19:47:27.920Z,2.60
2018-09-02T19:49:56.410Z,3.27
2018-09-02T19:52:25.471Z,2.87
2018-09-02T19:54:54.194Z,2.83
2018-09-02T19:57:22.860Z,3.13
2018-09-02T19:59:51.489Z,3.10
2018-09-02T20:02:20.422Z,3.10
2018-09-02T20:04:49.052Z,3.70
2018-09-02T20:07:19.197Z,3.47
2018-09-02T20:09:47.851Z,3.80
2018-09-02T20:12:16.733Z,3.63
2018-09-02T20:14:45.502Z,3.37
2018-09-02T20:17:16.344Z,3.30
2018-09-02T20:19:45.243Z,4.10
2018-09-02T20:22:14.564Z,3.63
2018-09-02T20:24:43.897Z,3.43
2018-09-02T20:27:12.442Z,4.07
2018-09-02T20:29:41.154Z,3.73
2018-09-02T20:32:09.867Z,4.07
2018-09-02T20:34:39.098Z,4.20
2018-09-02T20:37:07.704Z,3.93
2018-09-02T20:39:36.358Z,4.00
2018-09-02T20:42:05.284Z,3.93
2018-09-02T20:44:34.039Z,4.13
2018-09-02T20:47:02.832Z,3.80
2018-09-02T20:49:31.524Z,4.20
2018-09-02T20:52:00.087Z,3.77
2018-09-02T20:54:29.069Z,3.87
2018-09-02T20:56:57.745Z,4.33
2018-09-02T20:59:26.376Z,4.43
2018-09-02T21:01:54.964Z,4.53
2018-09-02T21:04:23.805Z,4.60
2018-09-02T21:06:52.465Z,4.43
2018-09-02T21:09:21.524Z,4.60
2018-09-02T21:11:50.232Z,4.60
2018-09-02T21:14:19.564Z,4.80
2018-09-02T21:16:48.121Z,5.00
2018-09-02T21:19:16.711Z,5.10
2018-09-02T21:21:45.282Z,4.57
2018-09-02T21:24:13.855Z,5.13
2018-09-02T21:26:42.645Z,4.47
2018-09-02T21:29:11.205Z,5.07
2018-09-02T21:31:39.843Z,4.97
2018-09-02T21:34:08.467Z,5.03
2018-09-02T21:36:37.017Z,4.57
2018-09-02T21:39:07.679Z,4.77
2018-09-02T21:41:36.895Z,4.53
2018-09-02T21:44:05.852Z,5.23
2018-09-02T21:46:34.527Z,4.93
2018-09-02T21:49:03.099Z,4.93
2018-09-02T21:51:31.670Z,5.13
2018-09-02T21:54:00.467Z,4.70
2018-09-02T21:56:28.939Z,5.30
2018-09-02T21:58:57.966Z,4.87
2018-09-02T22:01:26.586Z,4.93
2018-09-02T22:03:55.567Z,4.50
2018-09-02T22:06:24.081Z,5.13
2018-09-02T22:08:52.679Z,5.20
2018-09-02T22:11:21.750Z,5.03
2018-09-02T22:13:50.369Z,5.70
2018-09-02T22:16:18.920Z,5.23
2018-09-02T22:18:47.803Z,5.27
2018-09-02T22:21:16.394Z,5.13
2018-09-02T22:23:45.584Z,4.80
2018-09-02T22:26:14.130Z,5.60
2018-09-02T22:28:42.946Z,5.40
2018-09-02T22:31:11.481Z,4.77
2018-09-02T22:33:41.374Z,4.70
2018-09-02T22:36:09.947Z,5.23
2018-09-02T22:38:38.464Z,4.50
2018-09-02T22:41:07.241Z,5.13
2018-09-02T22:43:36.776Z,5.10
2018-09-02T22:46:05.349Z,4.73
2018-09-02T22:48:34.645Z,5.03
2018-09-02T22:51:03.316Z,4.70
2018-09-02T22:53:31.926Z,4.93
2018-09-02T22:56:00.517Z,4.77
2018-09-02T22:58:29.097Z,4.70
2018-09-02T23:00:57.638Z,5.20
2018-09-02T23:03:26.550Z,4.93
2018-09-02T23:05:55.236Z,5.23
2018-09-02T23:08:23.804Z,4.90
2018-09-02T23:10:52.407Z,5.17
2018-09-02T23:13:20.939Z,4.80
2018-09-02T23:15:49.475Z,5.07
2018-09-02T23:18:17.963Z,5.00
2018-09-02T23:20:46.705Z,5.57
2018-09-02T23:23:15.285Z,4.90
2018-09-02T23:25:44.673Z,5.60
2018-09-02T23:28:13.154Z,5.47
2018-09-02T23:30:41.720Z,5.07
2018-09-02T23:33:10.241Z,5.27
2018-09-02T23:35:38.807Z,5.57
2018-09-02T23:38:07.454Z,5.67
2018-09-02T23:40:36.040Z,5.37
2018-09-02T23:43:04.585Z,5.23
2018-09-02T23:45:33.042Z,5.43
2018-09-02T23:48:01.613Z,5.30
2018-09-02T23:50:30.425Z,5.60
2018-09-02T23:52:58.911Z,6.00
2018-09-02T23:55:27.439Z,5.87
2018-09-02T23:57:56.153Z,6.53
